Woodinville, WA

4:26 AM PDT on September 01, 2015 (GMT -0700)
Cottage Lake Beach Club | | Change Station
CLOSE
Current Station
Personal Weather Station
Location: Woodinville, WA
Elevation: 276 ft
Nearby Weather Stations

Elev 276 ft 47.75 °N, 122.09 °W | Updated 58 seconds ago

Overcast
Overcast
60.6 °F
Feels Like 60.6 °F
N
1.0
Wind Variable Wind from NE
Gusts 2.0 mph

Today
High -- | Low -- °F
--% Chance of Precip.
Yesterday
High -- | Low -- °F
Precip. -- in
6:26 AM 7:49 PM
Waning Gibbous, 89% visible
Pressure 29.87 in
Visibility 10.0 miles
Clouds Mostly Cloudy 2500 ft
Mostly Cloudy 3700 ft
Dew Point 55 °F
Humidity 83%
Rainfall 0.00 in
Snow Depth Not available.
UV 0 out of 12
Pollen .40 out of 12
Air Quality Not available.
Flu Activity Not available.
SPECI KPAE 011108Z AUTO 20020G25KT 10SM BKN025 BKN037 17/11 A2987 RMK AO2 T01670111
Pressure 29.87 in
Visibility 10.0 miles
Clouds Mostly Cloudy 2500 ft
Mostly Cloudy 3700 ft
Dew Point 55 °F
Humidity 83%
Rainfall 0.00 in
Snow Depth Not available.
UV 0 out of 12
Pollen .40 out of 12
Air Quality Not available.
Flu Activity Not available.
SPECI KPAE 011108Z AUTO 20020G25KT 10SM BKN025 BKN037 17/11 A2987 RMK AO2 T01670111

10-Day Weather Forecast

×

Almanac

Astronomy

Sep. 01, 2015 Rise Set
Actual Time
Civil Twilight
Nautical Twilight
Astronomical Twilight
Moon
Length of Visible Light
Length of Day
Tomorrow will be .
, % of the Moon is Illuminated

Today's Extremes

State Highs State Lows

Community

WunderPhotos

Upload Photos

1,851,501 photos uploaded!

WunderBlogs® & News

Nearby

Air Quality

  Air Quality AQ Index Pollutant
Not available.

Snow Depth

Station Depth Elevation

Earthquake Activity

City Distance Mag. Time & Date
Minimum magnitude displayed is 2.5.

Coastal Water Temperatures

Place Temperature

Stations

Nearby Weather Stations

Station Location Temp. Windchill Dew Point Humidity Wind Precip. Elev Updated Type